Time;durP1;ratioP1;P1;durP2;ratioP2;P2;SDS_P1;SDS_P2;PMS_P1;PMS_P2;Temp;Humidity;BMP_temperature;BMP_pressure;BME280_temperature;BME280_humidity;BME280_pressure;Samples;Min_cycle;Max_cycle;Signal;HPM_P1;HPM_P2
2023/12/22 00:01:51;;;;;;;;;;;11.40;89.20;;;;;;4937061;29;19945;-79
2023/12/22 00:04:16;;;;;;;;;;;11.40;89.20;;;;;;4936140;29;19914;-79
2023/12/22 00:06:42;;;;;;;;;;;11.40;89.20;;;;;;4937166;29;19917;-79
2023/12/22 00:09:07;;;;;;;;;;;11.40;89.20;;;;;;4933215;29;19915;-79
2023/12/22 00:11:33;;;;;;;;;;;11.40;89.10;;;;;;4918355;29;19911;-79
2023/12/22 00:13:58;;;;;;;;;;;11.40;89.10;;;;;;4917428;29;19923;-79
2023/12/22 00:16:23;;;;;;;;;;;11.40;89.10;;;;;;4933121;29;19918;-79
2023/12/22 00:18:49;;;;;;;;;;;11.40;89.10;;;;;;4934878;29;19981;-79
2023/12/22 00:21:14;;;;;;;;;;;11.40;89.10;;;;;;4916739;29;20426;-79
2023/12/22 00:23:40;;;;;;;;;;;11.40;89.10;;;;;;4917459;29;19925;-79
2023/12/22 00:29:08;;;;;;;;;;;11.40;89.10;;;;;;4950230;29;20416;-77
2023/12/22 00:31:33;;;;;;;;;;;11.40;89.10;;;;;;4954259;29;19981;-79
2023/12/22 00:34:00;;;;;;;;;;;11.30;89.00;;;;;;4951086;29;19915;-78
2023/12/22 00:36:26;;;;;;;;;;;11.40;89.00;;;;;;4942455;28;20378;-78
2023/12/22 00:38:51;;;;;;;;;;;11.40;89.00;;;;;;4969805;28;20223;-78
2023/12/22 00:41:17;;;;;;;;;;;11.30;89.30;;;;;;4975369;28;20445;-78
2023/12/22 00:43:42;;;;;;;;;;;11.40;88.90;;;;;;4953628;28;19910;-79
2023/12/22 00:46:07;;;;;;;;;;;11.40;88.90;;;;;;4968324;28;19914;-80
2023/12/22 00:48:33;;;;;;;;;;;11.40;89.00;;;;;;4968613;28;20326;-78
2023/12/22 00:50:58;;;;;;;;;;;11.40;89.00;;;;;;4968749;28;20331;-80
2023/12/22 00:53:24;;;;;;;;;;;11.40;89.00;;;;;;4952501;29;19914;-79
2023/12/22 00:55:49;;;;;;;;;;;11.40;89.00;;;;;;4968069;28;19911;-79
2023/12/22 00:58:15;;;;;;;;;;;11.30;88.90;;;;;;4952063;29;19926;-80
2023/12/22 01:00:40;;;;;;;;;;;11.40;89.00;;;;;;4970439;28;19910;-80
2023/12/22 01:03:05;;;;;;;;;;;11.30;89.00;;;;;;4963413;28;20126;-80
2023/12/22 01:05:31;;;;;;;;;;;11.40;89.00;;;;;;4971719;28;19925;-80
2023/12/22 01:07:56;;;;;;;;;;;11.40;89.00;;;;;;4972809;28;19922;-80
2023/12/22 01:10:22;;;;;;;;;;;11.40;89.10;;;;;;4971475;28;19921;-80
2023/12/22 01:12:47;;;;;;;;;;;11.40;89.10;;;;;;4971407;28;19917;-78
2023/12/22 01:15:12;;;;;;;;;;;11.40;89.10;;;;;;4971143;28;20041;-80
2023/12/22 01:17:38;;;;;;;;;;;11.40;89.10;;;;;;4971034;28;20366;-80
2023/12/22 01:20:04;;;;;;;;;;;11.40;89.10;;;;;;4972468;28;19910;-79
2023/12/22 01:22:30;;;;;;;;;;;11.40;89.10;;;;;;4972573;28;19910;-80
2023/12/22 01:24:56;;;;;;;;;;;11.40;89.10;;;;;;4971095;28;19910;-78
2023/12/22 01:27:21;;;;;;;;;;;11.40;89.00;;;;;;4971015;28;20331;-79
2023/12/22 01:29:47;;;;;;;;;;;11.30;89.00;;;;;;4971009;28;19985;-79
2023/12/22 01:32:12;;;;;;;;;;;11.40;89.00;;;;;;4971237;28;19929;-79
2023/12/22 01:34:38;;;;;;;;;;;11.30;88.80;;;;;;4971174;28;19914;-78
2023/12/22 01:37:03;;;;;;;;;;;11.40;88.90;;;;;;4970931;28;19910;-78
2023/12/22 01:39:28;;;;;;;;;;;11.40;89.00;;;;;;4962755;28;19933;-78
2023/12/22 01:41:54;;;;;;;;;;;11.40;89.10;;;;;;4953431;29;20305;-79
2023/12/22 01:44:19;;;;;;;;;;;11.40;89.00;;;;;;4967955;28;19958;-80
2023/12/22 01:46:45;;;;;;;;;;;11.40;89.00;;;;;;4967844;28;19945;-79
2023/12/22 01:49:11;;;;;;;;;;;11.40;89.00;;;;;;4968044;28;19919;-79
2023/12/22 01:51:37;;;;;;;;;;;11.40;89.00;;;;;;4967973;28;20301;-79
2023/12/22 01:54:03;;;;;;;;;;;11.40;89.00;;;;;;4968038;28;19918;-79
2023/12/22 01:56:29;;;;;;;;;;;11.40;89.00;;;;;;4967718;28;19949;-78
2023/12/22 01:58:57;;;;;;;;;;;11.30;89.00;;;;;;4967986;28;19997;-79
2023/12/22 02:01:23;;;;;;;;;;;11.40;89.00;;;;;;4967894;28;20005;-80
2023/12/22 02:03:52;;;;;;;;;;;11.40;89.00;;;;;;4967850;28;19915;-79
2023/12/22 02:06:17;;;;;;;;;;;11.30;88.90;;;;;;4967409;28;19914;-79
2023/12/22 02:08:43;;;;;;;;;;;11.30;89.00;;;;;;4968119;28;20286;-79
2023/12/22 02:11:09;;;;;;;;;;;11.40;89.00;;;;;;4967700;28;20359;-80
2023/12/22 02:13:34;;;;;;;;;;;11.30;88.90;;;;;;4967751;28;20017;-79
2023/12/22 02:16:03;;;;;;;;;;;11.30;89.00;;;;;;4967346;28;20331;-79
2023/12/22 02:18:33;;;;;;;;;;;11.30;89.00;;;;;;4968014;28;19977;-79
2023/12/22 02:20:58;;;;;;;;;;;11.40;89.00;;;;;;4967546;28;19911;-79
2023/12/22 02:23:23;;;;;;;;;;;11.40;89.00;;;;;;4951533;29;19922;-79
2023/12/22 02:25:51;;;;;;;;;;;11.40;89.00;;;;;;4952570;28;19969;-79
2023/12/22 02:28:20;;;;;;;;;;;11.40;89.00;;;;;;4970987;28;20118;-80
2023/12/22 02:31:09;;;;;;;;;;;11.40;89.00;;;;;;4970945;28;19919;-79
2023/12/22 02:33:35;;;;;;;;;;;11.40;89.00;;;;;;4956471;28;20020;-80
2023/12/22 02:36:03;;;;;;;;;;;11.40;88.90;;;;;;4970557;28;19917;-80
2023/12/22 02:38:29;;;;;;;;;;;11.40;88.90;;;;;;4956201;28;19921;-79
2023/12/22 02:40:55;;;;;;;;;;;11.40;88.90;;;;;;4970850;28;20301;-79
2023/12/22 02:43:21;;;;;;;;;;;11.40;88.90;;;;;;4969722;28;19970;-79
2023/12/22 02:45:50;;;;;;;;;;;11.40;88.90;;;;;;4954141;29;19918;-79
2023/12/22 02:48:15;;;;;;;;;;;11.40;88.90;;;;;;4955979;28;19911;-79
2023/12/22 02:50:40;;;;;;;;;;;11.30;88.90;;;;;;4954686;29;20407;-80
2023/12/22 02:53:06;;;;;;;;;;;11.30;88.90;;;;;;4954617;28;19941;-79
2023/12/22 02:55:31;;;;;;;;;;;11.30;88.90;;;;;;4955874;28;20343;-79
2023/12/22 02:57:57;;;;;;;;;;;11.40;88.80;;;;;;4954318;29;20387;-79
2023/12/22 03:00:22;;;;;;;;;;;11.40;88.80;;;;;;4955770;28;19910;-80
2023/12/22 03:02:48;;;;;;;;;;;11.40;88.90;;;;;;4963484;28;19917;-79
2023/12/22 03:05:13;;;;;;;;;;;11.40;88.90;;;;;;4970521;28;19932;-80
2023/12/22 03:07:38;;;;;;;;;;;11.30;88.90;;;;;;4970259;28;19914;-79
2023/12/22 03:10:04;;;;;;;;;;;11.40;88.90;;;;;;4970295;28;19914;-79
2023/12/22 03:12:30;;;;;;;;;;;11.30;88.90;;;;;;4971493;28;19918;-79
2023/12/22 03:14:55;;;;;;;;;;;11.40;89.00;;;;;;4977784;28;20342;-79
2023/12/22 03:17:20;;;;;;;;;;;11.40;88.90;;;;;;4953717;29;19910;-79
2023/12/22 03:19:46;;;;;;;;;;;11.40;89.00;;;;;;4954145;29;20385;-79
2023/12/22 03:22:11;;;;;;;;;;;11.30;88.90;;;;;;4954227;28;19973;-79
2023/12/22 03:24:38;;;;;;;;;;;11.30;88.90;;;;;;4955451;28;19914;-79
2023/12/22 03:27:04;;;;;;;;;;;11.30;88.80;;;;;;4953696;29;20532;-79
2023/12/22 03:29:29;;;;;;;;;;;11.30;88.80;;;;;;4953938;29;19919;-80
2023/12/22 03:31:54;;;;;;;;;;;11.40;88.90;;;;;;4955337;28;19915;-79
2023/12/22 03:34:20;;;;;;;;;;;11.40;88.90;;;;;;4953882;29;19918;-80
2023/12/22 03:36:48;;;;;;;;;;;11.40;88.90;;;;;;4954624;28;19922;-79
2023/12/22 03:39:14;;;;;;;;;;;11.30;88.80;;;;;;4953887;28;19911;-80
2023/12/22 03:41:40;;;;;;;;;;;11.30;88.90;;;;;;4955261;28;19914;-79
2023/12/22 03:44:05;;;;;;;;;;;11.30;88.80;;;;;;4953625;28;19922;-79
2023/12/22 03:46:31;;;;;;;;;;;11.30;88.90;;;;;;4954557;28;20003;-79
2023/12/22 03:48:56;;;;;;;;;;;11.40;88.90;;;;;;4953553;29;19914;-79
2023/12/22 03:51:21;;;;;;;;;;;11.40;88.90;;;;;;4953318;29;19911;-79
2023/12/22 03:53:47;;;;;;;;;;;11.40;88.90;;;;;;4954703;28;19918;-80
2023/12/22 03:56:12;;;;;;;;;;;11.30;88.80;;;;;;4953373;29;19917;-79
2023/12/22 03:58:38;;;;;;;;;;;11.40;89.00;;;;;;4953490;29;19918;-79
2023/12/22 04:01:04;;;;;;;;;;;11.30;88.90;;;;;;4953528;29;19910;-79
2023/12/22 04:03:29;;;;;;;;;;;11.40;88.90;;;;;;4953539;29;19914;-79
2023/12/22 04:05:54;;;;;;;;;;;11.30;88.90;;;;;;4953043;28;19910;-79
2023/12/22 04:08:20;;;;;;;;;;;11.40;89.00;;;;;;4953097;28;19917;-80
2023/12/22 04:10:46;;;;;;;;;;;11.40;88.90;;;;;;4953301;29;19918;-80
2023/12/22 04:13:11;;;;;;;;;;;11.40;89.00;;;;;;4954535;28;19926;-79
2023/12/22 04:15:37;;;;;;;;;;;11.40;88.90;;;;;;4953405;29;19915;-79
2023/12/22 04:18:02;;;;;;;;;;;11.30;88.90;;;;;;4952930;29;20326;-80
2023/12/22 04:20:28;;;;;;;;;;;11.40;88.90;;;;;;4953254;29;19911;-80
2023/12/22 04:22:54;;;;;;;;;;;11.30;88.90;;;;;;4952997;29;19917;-80
2023/12/22 04:25:19;;;;;;;;;;;11.40;88.90;;;;;;4953268;28;20290;-80
2023/12/22 04:27:45;;;;;;;;;;;11.40;89.00;;;;;;4952852;28;20391;-80
2023/12/22 04:30:10;;;;;;;;;;;11.30;88.80;;;;;;4952991;28;20326;-80
2023/12/22 04:32:36;;;;;;;;;;;11.40;88.90;;;;;;4952975;29;19961;-80
2023/12/22 04:35:01;;;;;;;;;;;11.30;88.90;;;;;;4952680;29;19926;-80
2023/12/22 04:37:28;;;;;;;;;;;11.40;89.00;;;;;;4952192;28;21379;-80
2023/12/22 04:39:54;;;;;;;;;;;11.30;88.90;;;;;;4952632;29;19918;-79
2023/12/22 04:42:19;;;;;;;;;;;11.30;88.80;;;;;;4952591;28;19917;-80
2023/12/22 04:44:45;;;;;;;;;;;11.30;88.80;;;;;;4952788;29;19911;-79
2023/12/22 04:47:12;;;;;;;;;;;11.40;88.90;;;;;;4952589;29;19910;-80
2023/12/22 04:49:38;;;;;;;;;;;11.30;88.90;;;;;;4952261;28;19961;-80
2023/12/22 04:52:03;;;;;;;;;;;11.30;88.80;;;;;;4952455;28;19965;-79
2023/12/22 04:54:28;;;;;;;;;;;11.30;88.80;;;;;;4952511;28;19915;-79
2023/12/22 04:56:54;;;;;;;;;;;11.30;88.90;;;;;;4952207;29;19910;-79
2023/12/22 04:59:19;;;;;;;;;;;11.40;88.90;;;;;;4952435;28;19929;-79
2023/12/22 05:01:45;;;;;;;;;;;11.30;88.80;;;;;;4952620;29;19910;-80
2023/12/22 05:04:11;;;;;;;;;;;11.40;88.80;;;;;;4952822;29;19910;-79
2023/12/22 05:06:37;;;;;;;;;;;11.30;88.80;;;;;;4951842;28;19921;-79
2023/12/22 05:09:03;;;;;;;;;;;11.40;88.80;;;;;;4952239;28;19915;-80
2023/12/22 05:11:28;;;;;;;;;;;11.40;88.90;;;;;;4950657;29;20298;-79
2023/12/22 05:13:54;;;;;;;;;;;11.30;88.80;;;;;;4962784;28;20123;-80
2023/12/22 05:16:19;;;;;;;;;;;11.30;88.80;;;;;;4967878;28;19998;-79
2023/12/22 05:18:45;;;;;;;;;;;11.40;88.90;;;;;;4952274;29;20399;-80
2023/12/22 05:21:14;;;;;;;;;;;11.40;88.80;;;;;;4968225;28;20383;-80
2023/12/22 05:23:39;;;;;;;;;;;11.40;88.90;;;;;;4968234;28;19910;-80
2023/12/22 05:26:05;;;;;;;;;;;11.40;88.90;;;;;;4966978;28;20260;-80
2023/12/22 05:28:30;;;;;;;;;;;11.40;88.90;;;;;;4951518;29;19911;-79
2023/12/22 05:30:56;;;;;;;;;;;11.30;88.80;;;;;;4967909;28;19914;-79
2023/12/22 05:33:21;;;;;;;;;;;11.30;88.80;;;;;;4953323;29;19918;-81
2023/12/22 05:35:47;;;;;;;;;;;11.30;88.70;;;;;;4951986;28;19918;-79
2023/12/22 05:38:12;;;;;;;;;;;11.40;88.80;;;;;;4949119;28;19981;-80
2023/12/22 05:40:37;;;;;;;;;;;11.30;88.80;;;;;;4947655;28;19925;-80
2023/12/22 05:43:03;;;;;;;;;;;11.40;88.90;;;;;;4968406;28;19926;-80
2023/12/22 05:45:28;;;;;;;;;;;11.30;88.80;;;;;;4951593;28;19914;-80
2023/12/22 05:47:54;;;;;;;;;;;11.30;88.70;;;;;;4938190;29;19937;-80
2023/12/22 05:50:19;;;;;;;;;;;11.30;88.80;;;;;;4929791;29;19915;-80
2023/12/22 05:52:45;;;;;;;;;;;11.30;88.80;;;;;;4929437;29;19962;-79
2023/12/22 05:55:11;;;;;;;;;;;11.30;88.70;;;;;;4929514;29;20194;-80
2023/12/22 05:57:36;;;;;;;;;;;11.30;88.70;;;;;;4929652;29;19946;-80
2023/12/22 06:00:04;;;;;;;;;;;11.30;88.70;;;;;;4940221;29;19962;-79
2023/12/22 06:02:30;;;;;;;;;;;11.30;88.60;;;;;;4951348;28;19965;-79
2023/12/22 06:04:55;;;;;;;;;;;11.30;88.70;;;;;;4952368;28;19914;-79
2023/12/22 06:07:20;;;;;;;;;;;11.40;88.80;;;;;;4952383;28;20260;-80
2023/12/22 06:09:46;;;;;;;;;;;11.40;88.80;;;;;;4952029;28;20294;-79
2023/12/22 06:12:11;;;;;;;;;;;11.40;88.80;;;;;;4951612;28;19950;-80
2023/12/22 06:14:37;;;;;;;;;;;11.30;88.70;;;;;;4954979;28;19933;-80
2023/12/22 06:17:02;;;;;;;;;;;11.30;88.80;;;;;;4971567;28;20325;-80
2023/12/22 06:19:30;;;;;;;;;;;11.30;88.80;;;;;;4968399;28;19914;-80
2023/12/22 06:21:57;;;;;;;;;;;11.40;88.90;;;;;;4968181;28;20295;-79
2023/12/22 06:24:22;;;;;;;;;;;11.30;88.70;;;;;;4965101;28;20005;-79
2023/12/22 06:26:48;;;;;;;;;;;11.40;88.80;;;;;;4966748;28;20001;-80
2023/12/22 06:29:14;;;;;;;;;;;11.30;88.80;;;;;;4951200;29;19929;-79
2023/12/22 06:31:40;;;;;;;;;;;11.30;88.70;;;;;;4968079;28;19965;-79
2023/12/22 06:34:06;;;;;;;;;;;11.30;88.70;;;;;;4967490;28;20017;-79
2023/12/22 06:36:31;;;;;;;;;;;11.30;88.70;;;;;;4953232;28;20491;-79
2023/12/22 06:38:57;;;;;;;;;;;11.30;88.70;;;;;;4970329;28;19918;-81
2023/12/22 06:41:24;;;;;;;;;;;11.30;88.70;;;;;;4969149;28;19921;-80
2023/12/22 06:43:50;;;;;;;;;;;11.30;88.70;;;;;;4969794;28;20053;-79
2023/12/22 06:46:16;;;;;;;;;;;11.30;88.70;;;;;;4966501;28;19980;-79
2023/12/22 06:48:42;;;;;;;;;;;11.30;88.80;;;;;;4967228;28;20291;-77
2023/12/22 06:51:16;;;;;;;;;;;11.30;88.70;;;;;;4966273;28;19914;-79
2023/12/22 06:53:42;;;;;;;;;;;11.30;88.70;;;;;;4967052;28;19919;-79
2023/12/22 07:04:24;;;;;;;;;;;11.30;88.70;;;;;;4902782;28;20005;-78
2023/12/22 07:06:49;;;;;;;;;;;11.40;88.70;;;;;;4974984;28;20009;-78
2023/12/22 07:09:15;;;;;;;;;;;11.40;88.70;;;;;;4957089;28;20001;-79
2023/12/22 07:11:41;;;;;;;;;;;11.30;88.60;;;;;;4955855;28;19921;-79
2023/12/22 07:14:07;;;;;;;;;;;11.40;88.60;;;;;;4955502;28;19914;-79
2023/12/22 07:16:33;;;;;;;;;;;11.40;88.70;;;;;;4956733;28;20320;-78
2023/12/22 07:18:59;;;;;;;;;;;11.30;88.50;;;;;;4973793;28;19910;-78
2023/12/22 07:21:24;;;;;;;;;;;11.40;88.60;;;;;;4973291;28;19988;-79
2023/12/22 07:23:49;;;;;;;;;;;11.40;88.60;;;;;;4974271;28;19956;-79
2023/12/22 07:26:15;;;;;;;;;;;11.40;88.60;;;;;;4956703;28;19922;-78
2023/12/22 07:28:40;;;;;;;;;;;11.30;88.60;;;;;;4956830;28;19914;-79
2023/12/22 07:31:05;;;;;;;;;;;11.30;88.60;;;;;;4956750;28;20370;-78
2023/12/22 07:33:31;;;;;;;;;;;11.40;88.60;;;;;;4956512;28;19925;-79
2023/12/22 07:35:57;;;;;;;;;;;11.30;88.60;;;;;;4956485;28;19915;-78
2023/12/22 07:38:22;;;;;;;;;;;11.40;88.70;;;;;;4956654;28;19978;-79
2023/12/22 07:40:47;;;;;;;;;;;11.30;88.60;;;;;;4956482;28;19916;-79
2023/12/22 07:43:14;;;;;;;;;;;11.30;88.60;;;;;;4956445;28;19910;-79
2023/12/22 07:45:39;;;;;;;;;;;11.30;88.70;;;;;;4956522;28;19910;-79
2023/12/22 07:48:05;;;;;;;;;;;11.40;88.70;;;;;;4955946;28;20337;-79
2023/12/22 07:50:30;;;;;;;;;;;11.40;88.70;;;;;;4956607;28;19914;-79
2023/12/22 07:52:56;;;;;;;;;;;11.40;88.60;;;;;;4956219;28;19920;-78
2023/12/22 07:55:21;;;;;;;;;;;11.30;88.50;;;;;;4956436;28;19953;-79
2023/12/22 07:57:47;;;;;;;;;;;11.30;88.60;;;;;;4955962;28;19921;-79
2023/12/22 08:00:12;;;;;;;;;;;11.20;88.50;;;;;;4956073;28;20275;-79
2023/12/22 08:02:38;;;;;;;;;;;11.30;88.60;;;;;;4956266;28;19914;-79
2023/12/22 08:05:03;;;;;;;;;;;11.30;88.50;;;;;;4955966;28;19914;-79
2023/12/22 08:07:29;;;;;;;;;;;11.30;88.60;;;;;;4955832;28;20354;-79
2023/12/22 08:09:55;;;;;;;;;;;11.40;88.60;;;;;;4973338;28;19914;-79
2023/12/22 08:12:20;;;;;;;;;;;11.30;88.50;;;;;;4956167;28;19914;-78
2023/12/22 08:14:46;;;;;;;;;;;11.40;88.60;;;;;;4973979;28;20421;-79
2023/12/22 08:17:13;;;;;;;;;;;11.40;88.60;;;;;;4972768;28;19965;-79
2023/12/22 08:19:38;;;;;;;;;;;11.40;88.60;;;;;;4973317;28;19921;-79
2023/12/22 08:22:04;;;;;;;;;;;11.40;88.60;;;;;;4955782;28;20017;-79
2023/12/22 08:24:29;;;;;;;;;;;11.30;88.50;;;;;;4954914;28;19910;-78
2023/12/22 08:26:55;;;;;;;;;;;11.30;88.50;;;;;;4955165;28;19915;-78
2023/12/22 08:29:20;;;;;;;;;;;11.30;88.60;;;;;;4955907;28;20322;-79
2023/12/22 08:31:46;;;;;;;;;;;11.30;88.50;;;;;;4955587;28;20449;-79
2023/12/22 08:34:11;;;;;;;;;;;11.30;88.50;;;;;;4955554;28;19969;-79
2023/12/22 08:36:37;;;;;;;;;;;11.30;88.50;;;;;;4955356;28;19910;-79
2023/12/22 08:39:03;;;;;;;;;;;11.30;88.50;;;;;;4955274;28;19949;-78
2023/12/22 08:41:28;;;;;;;;;;;11.40;88.60;;;;;;4955318;28;19929;-79
2023/12/22 08:43:54;;;;;;;;;;;11.30;88.50;;;;;;4955387;28;19917;-79
2023/12/22 08:46:19;;;;;;;;;;;11.30;88.40;;;;;;4955235;28;19956;-78
2023/12/22 08:48:45;;;;;;;;;;;11.30;88.50;;;;;;4955343;28;20386;-79
2023/12/22 08:51:10;;;;;;;;;;;11.30;88.50;;;;;;4955371;28;20003;-79
2023/12/22 08:53:37;;;;;;;;;;;11.30;88.50;;;;;;4955033;28;20422;-79
2023/12/22 08:56:02;;;;;;;;;;;11.40;88.50;;;;;;4954847;28;19921;-78
2023/12/22 08:58:28;;;;;;;;;;;11.30;88.40;;;;;;4955313;28;19910;-78
2023/12/22 09:00:54;;;;;;;;;;;11.30;88.40;;;;;;4954954;28;20371;-78
2023/12/22 09:03:19;;;;;;;;;;;11.40;88.50;;;;;;4954977;28;19910;-79
2023/12/22 09:05:45;;;;;;;;;;;11.30;88.50;;;;;;4954981;28;20282;-78
2023/12/22 09:08:10;;;;;;;;;;;11.30;88.40;;;;;;4955003;28;19953;-78
2023/12/22 09:10:35;;;;;;;;;;;11.40;88.60;;;;;;4955130;28;20370;-79
2023/12/22 09:13:01;;;;;;;;;;;11.40;88.60;;;;;;4954927;28;19910;-79
2023/12/22 09:15:27;;;;;;;;;;;11.30;88.50;;;;;;4972387;28;20321;-79
2023/12/22 09:17:54;;;;;;;;;;;11.30;88.40;;;;;;4950626;28;19918;-79
2023/12/22 09:20:19;;;;;;;;;;;11.30;88.50;;;;;;4951859;29;19915;-79
2023/12/22 09:22:44;;;;;;;;;;;11.40;88.50;;;;;;4951471;29;19926;-79
2023/12/22 09:25:10;;;;;;;;;;;11.30;88.50;;;;;;4953063;29;20315;-78
2023/12/22 09:27:35;;;;;;;;;;;11.40;88.50;;;;;;4950737;28;19933;-78
2023/12/22 09:30:01;;;;;;;;;;;11.30;88.40;;;;;;4951087;29;20406;-79
2023/12/22 09:32:26;;;;;;;;;;;11.40;88.50;;;;;;4951776;29;20363;-79
2023/12/22 09:34:52;;;;;;;;;;;11.30;88.50;;;;;;4951438;29;20395;-79
2023/12/22 09:37:17;;;;;;;;;;;11.40;88.50;;;;;;4957579;28;19914;-79
2023/12/22 09:39:43;;;;;;;;;;;11.30;88.40;;;;;;4958043;29;19914;-79
2023/12/22 09:42:08;;;;;;;;;;;11.40;88.50;;;;;;4959174;29;19910;-78
2023/12/22 09:44:35;;;;;;;;;;;11.30;88.50;;;;;;4959561;28;19946;-78
2023/12/22 09:47:03;;;;;;;;;;;11.30;88.50;;;;;;4957825;28;19953;-79
2023/12/22 09:49:29;;;;;;;;;;;11.40;88.50;;;;;;4958017;28;19914;-79
2023/12/22 09:51:56;;;;;;;;;;;11.30;88.50;;;;;;4957736;28;20283;-79
2023/12/22 09:54:21;;;;;;;;;;;11.40;88.50;;;;;;4957748;29;20396;-79
2023/12/22 09:56:47;;;;;;;;;;;11.40;88.50;;;;;;4958752;28;20001;-78
2023/12/22 09:59:13;;;;;;;;;;;11.30;88.40;;;;;;4958690;29;19958;-79
2023/12/22 10:01:42;;;;;;;;;;;11.30;88.40;;;;;;4941916;28;19918;-78
2023/12/22 10:04:07;;;;;;;;;;;11.40;88.60;;;;;;4957577;29;19964;-79
2023/12/22 10:06:33;;;;;;;;;;;11.30;88.50;;;;;;4957531;28;19958;-78
2023/12/22 10:08:58;;;;;;;;;;;11.40;89.00;;;;;;4957482;29;19918;-79
2023/12/22 10:11:25;;;;;;;;;;;11.40;88.50;;;;;;4957599;29;20604;-79
2023/12/22 10:13:52;;;;;;;;;;;11.30;88.40;;;;;;4957492;29;19921;-79
2023/12/22 10:16:18;;;;;;;;;;;11.40;89.00;;;;;;4957381;28;19911;-79
2023/12/22 10:18:43;;;;;;;;;;;11.40;88.50;;;;;;4957689;29;19930;-78
2023/12/22 10:21:08;;;;;;;;;;;11.30;88.30;;;;;;4957502;29;19953;-79
2023/12/22 10:23:34;;;;;;;;;;;11.40;88.50;;;;;;4957472;28;19911;-79
2023/12/22 10:26:00;;;;;;;;;;;11.30;88.30;;;;;;4957316;28;19953;-78
2023/12/22 10:28:27;;;;;;;;;;;11.40;88.40;;;;;;4957472;29;20005;-78
2023/12/22 10:30:53;;;;;;;;;;;11.30;88.30;;;;;;4957548;29;20013;-79
2023/12/22 10:33:18;;;;;;;;;;;11.30;88.30;;;;;;4957304;28;20021;-79
2023/12/22 10:35:44;;;;;;;;;;;11.30;88.40;;;;;;4957258;29;19993;-78
2023/12/22 10:38:10;;;;;;;;;;;11.40;88.90;;;;;;4956974;28;19954;-79
2023/12/22 10:40:36;;;;;;;;;;;11.40;88.40;;;;;;4957397;29;20338;-79
2023/12/22 10:43:02;;;;;;;;;;;11.30;88.30;;;;;;4957045;29;19918;-79
2023/12/22 10:45:29;;;;;;;;;;;11.40;88.40;;;;;;4957254;28;19915;-79
2023/12/22 10:47:54;;;;;;;;;;;11.30;88.30;;;;;;4954363;28;20371;-79
2023/12/22 10:50:20;;;;;;;;;;;11.20;88.20;;;;;;4954251;29;20017;-78
2023/12/22 10:52:49;;;;;;;;;;;11.40;88.30;;;;;;4938189;29;19918;-79
2023/12/22 10:55:15;;;;;;;;;;;11.30;88.30;;;;;;4954051;29;19914;-79
2023/12/22 10:57:41;;;;;;;;;;;11.40;88.40;;;;;;4953733;28;19910;-79
2023/12/22 11:00:09;;;;;;;;;;;11.30;88.30;;;;;;4953991;29;19919;-79
2023/12/22 11:02:35;;;;;;;;;;;11.40;88.40;;;;;;4954053;29;20376;-79
2023/12/22 11:05:02;;;;;;;;;;;11.30;88.30;;;;;;4953958;29;19918;-79
2023/12/22 11:07:28;;;;;;;;;;;11.40;88.30;;;;;;4953765;28;19914;-78
2023/12/22 11:09:55;;;;;;;;;;;11.30;88.30;;;;;;4953957;29;20282;-78
2023/12/22 11:12:21;;;;;;;;;;;11.40;88.30;;;;;;4953945;29;19910;-78
2023/12/22 11:14:52;;;;;;;;;;;11.40;88.30;;;;;;4953670;29;19937;-79
2023/12/22 11:17:19;;;;;;;;;;;11.40;88.40;;;;;;4953674;28;19918;-78
2023/12/22 11:19:45;;;;;;;;;;;11.30;88.30;;;;;;4953625;29;19918;-79
2023/12/22 11:22:12;;;;;;;;;;;11.40;88.40;;;;;;4955187;29;20009;-79
2023/12/22 11:24:38;;;;;;;;;;;11.40;88.40;;;;;;4953513;29;19911;-79
2023/12/22 11:27:03;;;;;;;;;;;11.40;88.40;;;;;;4953209;28;19915;-78
2023/12/22 11:29:30;;;;;;;;;;;11.30;88.30;;;;;;4953480;29;19961;-79
2023/12/22 11:31:57;;;;;;;;;;;11.40;88.40;;;;;;4954624;29;20005;-79
2023/12/22 11:34:26;;;;;;;;;;;11.30;88.30;;;;;;4953402;29;19965;-78
2023/12/22 11:36:51;;;;;;;;;;;11.40;88.30;;;;;;4952962;28;19942;-79
2023/12/22 11:39:17;;;;;;;;;;;11.40;88.30;;;;;;4953470;29;19910;-78
2023/12/22 11:41:43;;;;;;;;;;;11.30;88.30;;;;;;4953281;29;20293;-79
2023/12/22 11:44:08;;;;;;;;;;;11.40;88.30;;;;;;4953323;29;19961;-79
2023/12/22 11:46:34;;;;;;;;;;;11.40;88.30;;;;;;4953261;28;19918;-77
2023/12/22 11:49:00;;;;;;;;;;;11.40;88.30;;;;;;4954435;29;19961;-79
2023/12/22 11:51:30;;;;;;;;;;;11.40;88.30;;;;;;4953260;29;19922;-79
2023/12/22 11:53:56;;;;;;;;;;;11.40;88.30;;;;;;4954458;29;20406;-78
2023/12/22 11:56:24;;;;;;;;;;;11.40;88.40;;;;;;4952621;28;19914;-79
2023/12/22 11:58:52;;;;;;;;;;;11.40;88.40;;;;;;4951949;28;19911;-79
2023/12/22 12:01:19;;;;;;;;;;;11.40;88.30;;;;;;4954143;29;20378;-79
2023/12/22 12:03:48;;;;;;;;;;;11.30;88.20;;;;;;4954146;29;20009;-78
2023/12/22 12:06:14;;;;;;;;;;;11.30;88.30;;;;;;4952469;28;19914;-78
2023/12/22 12:08:39;;;;;;;;;;;11.40;88.40;;;;;;4936979;29;19961;-79
2023/12/22 12:11:06;;;;;;;;;;;11.40;88.40;;;;;;4952704;29;19914;-79
2023/12/22 12:13:32;;;;;;;;;;;11.40;88.40;;;;;;4952653;29;20112;-78
2023/12/22 12:16:00;;;;;;;;;;;11.40;88.30;;;;;;4952328;29;20177;-78
2023/12/22 12:18:29;;;;;;;;;;;11.40;88.40;;;;;;4952661;29;19997;-79
2023/12/22 12:20:55;;;;;;;;;;;11.40;88.30;;;;;;4953550;29;19914;-78
2023/12/22 12:23:23;;;;;;;;;;;11.40;88.40;;;;;;4952737;29;20429;-79
2023/12/22 12:25:48;;;;;;;;;;;11.30;88.40;;;;;;4952192;29;20287;-77
2023/12/22 12:28:17;;;;;;;;;;;11.40;88.30;;;;;;4952585;28;19915;-78
2023/12/22 12:30:43;;;;;;;;;;;11.30;88.80;;;;;;4952601;29;19911;-79
2023/12/22 12:33:09;;;;;;;;;;;11.30;88.30;;;;;;4953798;29;19914;-78
2023/12/22 12:35:35;;;;;;;;;;;11.40;88.30;;;;;;4952508;29;19915;-78
2023/12/22 12:38:02;;;;;;;;;;;11.40;88.30;;;;;;4953383;28;19914;-78
2023/12/22 12:40:32;;;;;;;;;;;11.30;88.30;;;;;;4953499;29;19911;-79
2023/12/22 12:42:58;;;;;;;;;;;11.40;88.40;;;;;;4952350;29;19917;-79
2023/12/22 12:45:23;;;;;;;;;;;11.40;88.40;;;;;;4952198;29;19915;-79
2023/12/22 12:48:09;;;;;;;;;;;11.40;88.40;;;;;;4953090;28;20286;-79
2023/12/22 12:50:36;;;;;;;;;;;11.40;88.40;;;;;;4935715;29;20230;-79
2023/12/22 12:53:01;;;;;;;;;;;11.40;88.40;;;;;;4952152;29;19910;-79
2023/12/22 12:55:27;;;;;;;;;;;11.40;88.40;;;;;;4953198;29;19921;-79
2023/12/22 12:57:53;;;;;;;;;;;11.40;88.30;;;;;;4951750;28;19910;-79
2023/12/22 13:00:28;;;;;;;;;;;11.30;88.30;;;;;;4953080;29;19922;-79
2023/12/22 13:02:55;;;;;;;;;;;11.30;88.30;;;;;;4953038;29;20279;-78
2023/12/22 13:05:22;;;;;;;;;;;11.30;88.20;;;;;;4952037;29;19921;-79
2023/12/22 13:07:47;;;;;;;;;;;11.40;88.40;;;;;;4951708;28;19910;-78
2023/12/22 13:10:19;;;;;;;;;;;11.40;88.30;;;;;;4952645;28;20009;-78
2023/12/22 13:12:45;;;;;;;;;;;11.40;88.40;;;;;;4951983;29;20000;-79
2023/12/22 13:15:10;;;;;;;;;;;11.30;88.40;;;;;;4951882;29;19978;-79
2023/12/22 13:17:35;;;;;;;;;;;11.30;88.40;;;;;;4951777;28;20012;-78
2023/12/22 13:20:03;;;;;;;;;;;11.40;88.40;;;;;;4951694;29;19933;-79
2023/12/22 13:22:28;;;;;;;;;;;11.40;88.40;;;;;;4952927;29;20329;-79
2023/12/22 13:24:54;;;;;;;;;;;11.40;88.40;;;;;;4951689;29;19938;-78
2023/12/22 13:27:20;;;;;;;;;;;11.40;88.40;;;;;;4952628;28;20442;-79
2023/12/22 13:29:47;;;;;;;;;;;11.40;88.40;;;;;;4953003;29;19919;-78
2023/12/22 13:32:16;;;;;;;;;;;11.30;88.30;;;;;;4953045;29;19918;-78
2023/12/22 13:34:46;;;;;;;;;;;11.40;88.40;;;;;;4951651;29;19915;-78
2023/12/22 13:37:12;;;;;;;;;;;11.30;88.30;;;;;;4952810;28;19911;-78
2023/12/22 13:39:37;;;;;;;;;;;11.30;88.30;;;;;;4951931;29;19965;-78
2023/12/22 13:42:03;;;;;;;;;;;11.40;88.40;;;;;;4951725;29;20014;-78
2023/12/22 13:44:28;;;;;;;;;;;11.30;88.30;;;;;;4951780;29;19911;-79
2023/12/22 13:46:54;;;;;;;;;;;11.30;88.30;;;;;;4951163;28;19910;-79
2023/12/22 13:49:19;;;;;;;;;;;11.40;88.40;;;;;;4951605;29;19938;-78
2023/12/22 13:51:45;;;;;;;;;;;11.40;88.50;;;;;;4951390;29;19973;-78
2023/12/22 13:54:10;;;;;;;;;;;11.40;88.40;;;;;;4952782;29;20354;-78
2023/12/22 13:56:37;;;;;;;;;;;11.40;88.40;;;;;;4951137;28;20536;-79
2023/12/22 13:59:03;;;;;;;;;;;11.30;88.40;;;;;;4951562;29;20035;-79
2023/12/22 14:01:29;;;;;;;;;;;11.30;88.40;;;;;;4951480;29;19969;-78
2023/12/22 14:03:57;;;;;;;;;;;11.40;88.50;;;;;;4951381;29;19914;-79
2023/12/22 14:06:23;;;;;;;;;;;11.40;88.50;;;;;;4952595;28;19961;-78
2023/12/22 14:08:48;;;;;;;;;;;11.30;88.40;;;;;;4951274;29;20298;-79
2023/12/22 14:11:15;;;;;;;;;;;11.40;88.50;;;;;;4951525;29;19911;-78
2023/12/22 14:13:40;;;;;;;;;;;11.30;88.40;;;;;;4951407;29;19914;-79
2023/12/22 14:16:06;;;;;;;;;;;11.40;88.40;;;;;;4950908;28;20039;-78
2023/12/22 14:18:32;;;;;;;;;;;11.30;88.40;;;;;;4952590;29;19923;-79
2023/12/22 14:20:58;;;;;;;;;;;11.30;88.50;;;;;;4951137;29;19941;-79